sensor_id;sensor_type;location;lat;lon;timestamp;P1;durP1;ratioP1;P2;durP2;ratioP2
30892;SDS011;17595;50.884;4.346;2022-09-09T00:01:50;4.18;;;1.85;;
30892;SDS011;17595;50.884;4.346;2022-09-09T00:15:02;3.70;;;1.70;;
30892;SDS011;17595;50.884;4.346;2022-09-09T00:17:43;8.85;;;1.73;;
30892;SDS011;17595;50.884;4.346;2022-09-09T00:23:12;4.50;;;1.63;;
30892;SDS011;17595;50.884;4.346;2022-09-09T00:28:35;5.47;;;1.60;;
30892;SDS011;17595;50.884;4.346;2022-09-09T00:31:15;6.22;;;1.60;;
30892;SDS011;17595;50.884;4.346;2022-09-09T00:33:45;2.70;;;1.40;;
30892;SDS011;17595;50.884;4.346;2022-09-09T00:36:13;7.07;;;2.38;;
30892;SDS011;17595;50.884;4.346;2022-09-09T00:38:47;9.07;;;2.00;;
30892;SDS011;17595;50.884;4.346;2022-09-09T00:49:35;4.90;;;1.80;;
30892;SDS011;17595;50.884;4.346;2022-09-09T00:57:28;7.25;;;2.33;;
30892;SDS011;17595;50.884;4.346;2022-09-09T01:02:26;8.23;;;2.15;;
30892;SDS011;17595;50.884;4.346;2022-09-09T01:05:15;6.80;;;2.17;;
30892;SDS011;17595;50.884;4.346;2022-09-09T01:07:58;7.28;;;1.92;;
30892;SDS011;17595;50.884;4.346;2022-09-09T01:13:11;5.63;;;1.85;;
30892;SDS011;17595;50.884;4.346;2022-09-09T01:15:42;6.75;;;2.13;;
30892;SDS011;17595;50.884;4.346;2022-09-09T01:18:12;2.67;;;1.38;;
30892;SDS011;17595;50.884;4.346;2022-09-09T01:28:40;4.68;;;1.73;;
30892;SDS011;17595;50.884;4.346;2022-09-09T01:31:11;5.53;;;1.70;;
30892;SDS011;17595;50.884;4.346;2022-09-09T01:33:40;3.15;;;1.60;;
30892;SDS011;17595;50.884;4.346;2022-09-09T01:38:41;6.53;;;1.90;;
30892;SDS011;17595;50.884;4.346;2022-09-09T01:41:06;6.05;;;1.50;;
30892;SDS011;17595;50.884;4.346;2022-09-09T01:43:32;6.30;;;1.77;;
30892;SDS011;17595;50.884;4.346;2022-09-09T01:45:59;6.43;;;1.85;;
30892;SDS011;17595;50.884;4.346;2022-09-09T01:48:26;5.07;;;1.70;;
30892;SDS011;17595;50.884;4.346;2022-09-09T01:50:52;5.70;;;1.98;;
30892;SDS011;17595;50.884;4.346;2022-09-09T01:53:19;7.32;;;1.95;;
30892;SDS011;17595;50.884;4.346;2022-09-09T01:55:49;4.60;;;1.55;;
30892;SDS011;17595;50.884;4.346;2022-09-09T02:06:53;7.25;;;2.20;;
30892;SDS011;17595;50.884;4.346;2022-09-09T02:09:23;5.88;;;2.00;;
30892;SDS011;17595;50.884;4.346;2022-09-09T02:11:53;7.00;;;2.65;;
30892;SDS011;17595;50.884;4.346;2022-09-09T02:14:30;6.75;;;2.28;;
30892;SDS011;17595;50.884;4.346;2022-09-09T02:17:09;9.50;;;2.17;;
30892;SDS011;17595;50.884;4.346;2022-09-09T02:19:45;7.70;;;2.40;;
30892;SDS011;17595;50.884;4.346;2022-09-09T02:24:44;9.68;;;2.47;;
30892;SDS011;17595;50.884;4.346;2022-09-09T02:27:11;10.70;;;2.40;;
30892;SDS011;17595;50.884;4.346;2022-09-09T02:29:40;9.43;;;2.38;;
30892;SDS011;17595;50.884;4.346;2022-09-09T02:32:09;7.32;;;2.08;;
30892;SDS011;17595;50.884;4.346;2022-09-09T02:34:43;8.55;;;2.30;;
30892;SDS011;17595;50.884;4.346;2022-09-09T02:37:15;7.65;;;2.65;;
30892;SDS011;17595;50.884;4.346;2022-09-09T02:39:46;7.85;;;2.30;;
30892;SDS011;17595;50.884;4.346;2022-09-09T02:42:12;9.50;;;2.40;;
30892;SDS011;17595;50.884;4.346;2022-09-09T02:44:40;10.63;;;2.83;;
30892;SDS011;17595;50.884;4.346;2022-09-09T02:58:08;7.10;;;2.33;;
30892;SDS011;17595;50.884;4.346;2022-09-09T03:03:06;13.18;;;2.70;;
30892;SDS011;17595;50.884;4.346;2022-09-09T03:05:33;10.52;;;2.72;;
30892;SDS011;17595;50.884;4.346;2022-09-09T03:08:00;12.07;;;2.78;;
30892;SDS011;17595;50.884;4.346;2022-09-09T03:10:27;8.77;;;2.42;;
30892;SDS011;17595;50.884;4.346;2022-09-09T03:12:52;10.40;;;2.25;;
30892;SDS011;17595;50.884;4.346;2022-09-09T03:15:18;11.38;;;2.22;;
30892;SDS011;17595;50.884;4.346;2022-09-09T03:17:44;9.73;;;2.45;;
30892;SDS011;17595;50.884;4.346;2022-09-09T03:20:09;9.88;;;2.78;;
30892;SDS011;17595;50.884;4.346;2022-09-09T03:22:35;10.98;;;2.55;;
30892;SDS011;17595;50.884;4.346;2022-09-09T03:25:01;12.20;;;2.42;;
30892;SDS011;17595;50.884;4.346;2022-09-09T03:27:27;11.45;;;2.50;;
30892;SDS011;17595;50.884;4.346;2022-09-09T03:29:53;11.77;;;2.67;;
30892;SDS011;17595;50.884;4.346;2022-09-09T03:32:19;13.85;;;2.95;;
30892;SDS011;17595;50.884;4.346;2022-09-09T03:34:47;10.15;;;2.38;;
30892;SDS011;17595;50.884;4.346;2022-09-09T03:37:15;10.15;;;3.20;;
30892;SDS011;17595;50.884;4.346;2022-09-09T03:39:42;8.82;;;2.53;;
30892;SDS011;17595;50.884;4.346;2022-09-09T03:42:08;11.75;;;2.90;;
30892;SDS011;17595;50.884;4.346;2022-09-09T03:44:33;11.98;;;2.85;;
30892;SDS011;17595;50.884;4.346;2022-09-09T03:46:59;9.63;;;2.70;;
30892;SDS011;17595;50.884;4.346;2022-09-09T03:49:27;9.68;;;2.60;;
30892;SDS011;17595;50.884;4.346;2022-09-09T03:51:56;12.40;;;2.40;;
30892;SDS011;17595;50.884;4.346;2022-09-09T03:54:22;13.98;;;3.03;;
30892;SDS011;17595;50.884;4.346;2022-09-09T03:56:49;8.55;;;2.50;;
30892;SDS011;17595;50.884;4.346;2022-09-09T03:59:14;12.65;;;2.92;;
30892;SDS011;17595;50.884;4.346;2022-09-09T04:01:40;6.72;;;1.80;;
30892;SDS011;17595;50.884;4.346;2022-09-09T04:04:05;13.75;;;2.60;;
30892;SDS011;17595;50.884;4.346;2022-09-09T04:06:31;11.38;;;2.33;;
30892;SDS011;17595;50.884;4.346;2022-09-09T04:08:56;13.27;;;2.25;;
30892;SDS011;17595;50.884;4.346;2022-09-09T04:11:22;11.00;;;3.00;;
30892;SDS011;17595;50.884;4.346;2022-09-09T04:13:48;13.63;;;2.45;;
30892;SDS011;17595;50.884;4.346;2022-09-09T04:16:14;17.77;;;2.92;;
30892;SDS011;17595;50.884;4.346;2022-09-09T04:18:40;12.23;;;2.67;;
30892;SDS011;17595;50.884;4.346;2022-09-09T04:21:06;10.15;;;2.85;;
30892;SDS011;17595;50.884;4.346;2022-09-09T04:23:33;11.50;;;2.67;;
30892;SDS011;17595;50.884;4.346;2022-09-09T04:25:59;11.02;;;2.97;;
30892;SDS011;17595;50.884;4.346;2022-09-09T04:28:27;7.40;;;2.33;;
30892;SDS011;17595;50.884;4.346;2022-09-09T04:30:55;11.20;;;2.15;;
30892;SDS011;17595;50.884;4.346;2022-09-09T04:33:23;10.40;;;2.65;;
30892;SDS011;17595;50.884;4.346;2022-09-09T04:35:51;9.85;;;2.17;;
30892;SDS011;17595;50.884;4.346;2022-09-09T04:38:19;12.55;;;2.58;;
30892;SDS011;17595;50.884;4.346;2022-09-09T04:40:48;13.38;;;2.85;;
30892;SDS011;17595;50.884;4.346;2022-09-09T04:43:16;12.57;;;2.53;;
30892;SDS011;17595;50.884;4.346;2022-09-09T04:45:42;12.50;;;2.67;;
30892;SDS011;17595;50.884;4.346;2022-09-09T04:48:08;13.00;;;2.70;;
30892;SDS011;17595;50.884;4.346;2022-09-09T04:50:34;10.93;;;3.05;;
30892;SDS011;17595;50.884;4.346;2022-09-09T04:53:04;13.40;;;2.85;;
30892;SDS011;17595;50.884;4.346;2022-09-09T04:55:30;11.55;;;3.03;;
30892;SDS011;17595;50.884;4.346;2022-09-09T04:57:56;13.00;;;2.88;;
30892;SDS011;17595;50.884;4.346;2022-09-09T05:00:22;13.80;;;3.10;;
30892;SDS011;17595;50.884;4.346;2022-09-09T05:02:51;13.40;;;2.78;;
30892;SDS011;17595;50.884;4.346;2022-09-09T05:05:18;12.23;;;3.67;;
30892;SDS011;17595;50.884;4.346;2022-09-09T05:07:44;12.68;;;3.08;;
30892;SDS011;17595;50.884;4.346;2022-09-09T05:10:10;9.30;;;2.90;;
30892;SDS011;17595;50.884;4.346;2022-09-09T05:12:36;12.13;;;2.67;;
30892;SDS011;17595;50.884;4.346;2022-09-09T05:15:01;13.35;;;3.40;;
30892;SDS011;17595;50.884;4.346;2022-09-09T05:17:27;9.63;;;3.58;;
30892;SDS011;17595;50.884;4.346;2022-09-09T05:19:53;20.83;;;5.25;;
30892;SDS011;17595;50.884;4.346;2022-09-09T05:22:19;9.48;;;3.17;;
30892;SDS011;17595;50.884;4.346;2022-09-09T05:24:45;8.35;;;2.97;;
30892;SDS011;17595;50.884;4.346;2022-09-09T05:27:11;13.73;;;3.13;;
30892;SDS011;17595;50.884;4.346;2022-09-09T05:29:37;12.98;;;3.25;;
30892;SDS011;17595;50.884;4.346;2022-09-09T05:32:03;11.20;;;3.20;;
30892;SDS011;17595;50.884;4.346;2022-09-09T05:34:29;14.07;;;3.05;;
30892;SDS011;17595;50.884;4.346;2022-09-09T05:36:54;10.75;;;2.97;;
30892;SDS011;17595;50.884;4.346;2022-09-09T05:39:20;12.43;;;3.05;;
30892;SDS011;17595;50.884;4.346;2022-09-09T05:41:46;11.48;;;2.75;;
30892;SDS011;17595;50.884;4.346;2022-09-09T05:44:11;9.18;;;2.70;;
30892;SDS011;17595;50.884;4.346;2022-09-09T05:46:38;12.80;;;3.50;;
30892;SDS011;17595;50.884;4.346;2022-09-09T05:49:04;10.95;;;2.78;;
30892;SDS011;17595;50.884;4.346;2022-09-09T05:51:30;10.60;;;3.17;;
30892;SDS011;17595;50.884;4.346;2022-09-09T05:53:56;14.93;;;3.17;;
30892;SDS011;17595;50.884;4.346;2022-09-09T05:56:25;13.98;;;3.72;;
30892;SDS011;17595;50.884;4.346;2022-09-09T05:58:53;11.27;;;3.30;;
30892;SDS011;17595;50.884;4.346;2022-09-09T06:01:21;13.85;;;2.65;;
30892;SDS011;17595;50.884;4.346;2022-09-09T06:03:48;11.90;;;2.88;;
30892;SDS011;17595;50.884;4.346;2022-09-09T06:06:16;11.20;;;2.80;;
30892;SDS011;17595;50.884;4.346;2022-09-09T06:08:53;10.70;;;3.60;;
30892;SDS011;17595;50.884;4.346;2022-09-09T06:11:26;15.70;;;2.92;;
30892;SDS011;17595;50.884;4.346;2022-09-09T06:13:56;10.68;;;3.28;;
30892;SDS011;17595;50.884;4.346;2022-09-09T06:16:22;16.20;;;3.10;;
30892;SDS011;17595;50.884;4.346;2022-09-09T06:18:50;18.48;;;3.00;;
30892;SDS011;17595;50.884;4.346;2022-09-09T06:21:17;20.17;;;2.72;;
30892;SDS011;17595;50.884;4.346;2022-09-09T06:23:45;10.23;;;2.75;;
30892;SDS011;17595;50.884;4.346;2022-09-09T06:26:11;12.90;;;2.55;;
30892;SDS011;17595;50.884;4.346;2022-09-09T06:28:45;11.52;;;2.28;;
30892;SDS011;17595;50.884;4.346;2022-09-09T06:31:13;13.80;;;2.67;;
30892;SDS011;17595;50.884;4.346;2022-09-09T06:33:42;12.05;;;3.08;;
30892;SDS011;17595;50.884;4.346;2022-09-09T06:36:16;10.68;;;2.53;;
30892;SDS011;17595;50.884;4.346;2022-09-09T06:38:46;16.38;;;2.80;;
30892;SDS011;17595;50.884;4.346;2022-09-09T06:41:13;12.90;;;2.45;;
30892;SDS011;17595;50.884;4.346;2022-09-09T06:43:39;12.18;;;2.45;;
30892;SDS011;17595;50.884;4.346;2022-09-09T06:46:06;12.93;;;2.33;;
30892;SDS011;17595;50.884;4.346;2022-09-09T06:48:55;11.90;;;2.53;;
30892;SDS011;17595;50.884;4.346;2022-09-09T06:51:25;13.95;;;3.20;;
30892;SDS011;17595;50.884;4.346;2022-09-09T06:53:55;12.68;;;2.63;;
30892;SDS011;17595;50.884;4.346;2022-09-09T06:56:24;10.25;;;2.63;;
30892;SDS011;17595;50.884;4.346;2022-09-09T06:58:53;15.40;;;2.80;;
30892;SDS011;17595;50.884;4.346;2022-09-09T07:01:21;11.10;;;2.88;;
30892;SDS011;17595;50.884;4.346;2022-09-09T07:03:51;10.93;;;2.30;;
30892;SDS011;17595;50.884;4.346;2022-09-09T07:06:23;10.00;;;2.58;;
30892;SDS011;17595;50.884;4.346;2022-09-09T07:08:54;9.50;;;2.55;;
30892;SDS011;17595;50.884;4.346;2022-09-09T07:11:22;13.60;;;2.70;;
30892;SDS011;17595;50.884;4.346;2022-09-09T07:13:49;11.02;;;2.30;;
30892;SDS011;17595;50.884;4.346;2022-09-09T07:16:16;14.32;;;2.75;;
30892;SDS011;17595;50.884;4.346;2022-09-09T07:18:43;8.52;;;2.13;;
30892;SDS011;17595;50.884;4.346;2022-09-09T07:21:09;7.80;;;2.10;;
30892;SDS011;17595;50.884;4.346;2022-09-09T07:23:37;11.55;;;2.50;;
30892;SDS011;17595;50.884;4.346;2022-09-09T07:26:07;10.45;;;2.38;;
30892;SDS011;17595;50.884;4.346;2022-09-09T07:28:38;10.40;;;2.15;;
30892;SDS011;17595;50.884;4.346;2022-09-09T07:31:05;14.20;;;2.72;;
30892;SDS011;17595;50.884;4.346;2022-09-09T07:33:32;12.15;;;2.08;;
30892;SDS011;17595;50.884;4.346;2022-09-09T07:36:03;8.02;;;2.33;;
30892;SDS011;17595;50.884;4.346;2022-09-09T07:41:07;7.50;;;1.92;;
30892;SDS011;17595;50.884;4.346;2022-09-09T07:43:40;9.10;;;2.13;;
30892;SDS011;17595;50.884;4.346;2022-09-09T07:46:07;8.30;;;1.88;;
30892;SDS011;17595;50.884;4.346;2022-09-09T07:48:33;6.82;;;2.30;;
30892;SDS011;17595;50.884;4.346;2022-09-09T07:51:10;9.80;;;2.50;;
30892;SDS011;17595;50.884;4.346;2022-09-09T07:53:44;12.93;;;2.63;;
30892;SDS011;17595;50.884;4.346;2022-09-09T07:56:11;9.35;;;2.30;;
30892;SDS011;17595;50.884;4.346;2022-09-09T07:58:39;7.75;;;2.17;;
30892;SDS011;17595;50.884;4.346;2022-09-09T08:01:07;6.25;;;2.38;;
30892;SDS011;17595;50.884;4.346;2022-09-09T08:03:34;8.32;;;2.58;;
30892;SDS011;17595;50.884;4.346;2022-09-09T08:06:00;7.78;;;2.25;;
30892;SDS011;17595;50.884;4.346;2022-09-09T08:08:27;12.20;;;3.20;;
30892;SDS011;17595;50.884;4.346;2022-09-09T08:10:53;9.40;;;2.30;;
30892;SDS011;17595;50.884;4.346;2022-09-09T08:13:25;12.80;;;2.03;;
30892;SDS011;17595;50.884;4.346;2022-09-09T08:15:52;10.88;;;2.45;;
30892;SDS011;17595;50.884;4.346;2022-09-09T08:18:17;9.00;;;2.05;;
30892;SDS011;17595;50.884;4.346;2022-09-09T08:20:43;8.10;;;1.90;;
30892;SDS011;17595;50.884;4.346;2022-09-09T08:23:08;9.18;;;2.50;;
30892;SDS011;17595;50.884;4.346;2022-09-09T08:25:34;10.27;;;2.50;;
30892;SDS011;17595;50.884;4.346;2022-09-09T08:27:59;13.30;;;2.65;;
30892;SDS011;17595;50.884;4.346;2022-09-09T08:30:25;9.23;;;2.13;;
30892;SDS011;17595;50.884;4.346;2022-09-09T08:32:51;7.85;;;2.13;;
30892;SDS011;17595;50.884;4.346;2022-09-09T08:35:17;7.68;;;1.75;;
30892;SDS011;17595;50.884;4.346;2022-09-09T08:37:42;8.75;;;2.35;;
30892;SDS011;17595;50.884;4.346;2022-09-09T08:40:09;14.35;;;3.15;;
30892;SDS011;17595;50.884;4.346;2022-09-09T08:42:45;10.32;;;2.33;;
30892;SDS011;17595;50.884;4.346;2022-09-09T08:45:23;9.90;;;2.28;;
30892;SDS011;17595;50.884;4.346;2022-09-09T08:50:41;12.23;;;2.40;;
30892;SDS011;17595;50.884;4.346;2022-09-09T09:03:47;11.77;;;2.45;;
30892;SDS011;17595;50.884;4.346;2022-09-09T09:06:22;8.10;;;2.75;;
30892;SDS011;17595;50.884;4.346;2022-09-09T09:09:02;7.82;;;2.83;;
30892;SDS011;17595;50.884;4.346;2022-09-09T09:11:48;8.38;;;2.40;;
30892;SDS011;17595;50.884;4.346;2022-09-09T09:14:29;8.43;;;2.33;;
30892;SDS011;17595;50.884;4.346;2022-09-09T09:22:45;10.00;;;2.72;;
30892;SDS011;17595;50.884;4.346;2022-09-09T09:30:44;8.68;;;2.03;;
30892;SDS011;17595;50.884;4.346;2022-09-09T09:33:42;7.38;;;2.60;;
30892;SDS011;17595;50.884;4.346;2022-09-09T09:36:18;9.85;;;2.17;;
30892;SDS011;17595;50.884;4.346;2022-09-09T09:38:59;8.75;;;2.20;;
30892;SDS011;17595;50.884;4.346;2022-09-09T09:41:30;9.93;;;2.35;;
30892;SDS011;17595;50.884;4.346;2022-09-09T09:43:59;11.10;;;2.83;;
30892;SDS011;17595;50.884;4.346;2022-09-09T09:46:26;8.00;;;2.28;;
30892;SDS011;17595;50.884;4.346;2022-09-09T09:48:56;8.40;;;2.40;;
30892;SDS011;17595;50.884;4.346;2022-09-09T09:51:22;8.15;;;1.88;;
30892;SDS011;17595;50.884;4.346;2022-09-09T09:53:50;9.23;;;2.17;;
30892;SDS011;17595;50.884;4.346;2022-09-09T09:56:17;10.65;;;2.55;;
30892;SDS011;17595;50.884;4.346;2022-09-09T09:58:54;10.55;;;2.42;;
30892;SDS011;17595;50.884;4.346;2022-09-09T10:03:53;9.38;;;2.58;;
30892;SDS011;17595;50.884;4.346;2022-09-09T10:06:34;7.35;;;3.00;;
30892;SDS011;17595;50.884;4.346;2022-09-09T10:09:24;6.68;;;2.03;;
30892;SDS011;17595;50.884;4.346;2022-09-09T10:14:41;8.23;;;2.10;;
30892;SDS011;17595;50.884;4.346;2022-09-09T10:19:54;6.88;;;2.22;;
30892;SDS011;17595;50.884;4.346;2022-09-09T10:22:45;8.32;;;2.05;;
30892;SDS011;17595;50.884;4.346;2022-09-09T10:25:25;10.20;;;2.10;;
30892;SDS011;17595;50.884;4.346;2022-09-09T10:36:23;6.85;;;1.80;;
30892;SDS011;17595;50.884;4.346;2022-09-09T10:47:14;8.57;;;2.28;;
30892;SDS011;17595;50.884;4.346;2022-09-09T10:50:18;6.95;;;1.88;;
30892;SDS011;17595;50.884;4.346;2022-09-09T10:53:13;7.45;;;1.95;;
30892;SDS011;17595;50.884;4.346;2022-09-09T10:55:59;8.90;;;2.00;;
30892;SDS011;17595;50.884;4.346;2022-09-09T10:58:56;8.57;;;2.10;;
30892;SDS011;17595;50.884;4.346;2022-09-09T11:01:35;6.35;;;1.90;;
30892;SDS011;17595;50.884;4.346;2022-09-09T11:04:39;10.98;;;5.03;;
30892;SDS011;17595;50.884;4.346;2022-09-09T11:07:12;7.05;;;2.15;;
30892;SDS011;17595;50.884;4.346;2022-09-09T11:09:46;10.27;;;2.60;;
30892;SDS011;17595;50.884;4.346;2022-09-09T11:12:18;7.90;;;1.90;;
30892;SDS011;17595;50.884;4.346;2022-09-09T11:19:48;5.65;;;1.50;;
30892;SDS011;17595;50.884;4.346;2022-09-09T11:22:31;7.50;;;1.50;;
30892;SDS011;17595;50.884;4.346;2022-09-09T11:25:05;11.20;;;2.15;;
30892;SDS011;17595;50.884;4.346;2022-09-09T11:38:28;5.57;;;1.55;;
30892;SDS011;17595;50.884;4.346;2022-09-09T11:41:11;4.43;;;1.40;;
30892;SDS011;17595;50.884;4.346;2022-09-09T11:46:13;5.30;;;1.50;;
30892;SDS011;17595;50.884;4.346;2022-09-09T11:48:42;7.85;;;2.08;;
30892;SDS011;17595;50.884;4.346;2022-09-09T11:56:45;12.50;;;8.25;;
30892;SDS011;17595;50.884;4.346;2022-09-09T11:59:22;12.10;;;7.60;;
30892;SDS011;17595;50.884;4.346;2022-09-09T12:04:34;11.15;;;5.68;;
30892;SDS011;17595;50.884;4.346;2022-09-09T12:10:05;6.70;;;2.30;;
30892;SDS011;17595;50.884;4.346;2022-09-09T12:12:49;8.23;;;3.15;;
30892;SDS011;17595;50.884;4.346;2022-09-09T12:17:49;6.85;;;2.17;;
30892;SDS011;17595;50.884;4.346;2022-09-09T12:33:42;4.32;;;1.50;;
30892;SDS011;17595;50.884;4.346;2022-09-09T12:36:14;6.50;;;1.52;;
30892;SDS011;17595;50.884;4.346;2022-09-09T12:38:44;5.78;;;1.75;;
30892;SDS011;17595;50.884;4.346;2022-09-09T12:41:19;5.35;;;1.35;;
30892;SDS011;17595;50.884;4.346;2022-09-09T12:43:45;7.78;;;1.80;;
30892;SDS011;17595;50.884;4.346;2022-09-09T12:46:16;6.70;;;1.20;;
30892;SDS011;17595;50.884;4.346;2022-09-09T12:48:48;3.42;;;1.20;;
30892;SDS011;17595;50.884;4.346;2022-09-09T12:51:18;5.90;;;1.35;;
30892;SDS011;17595;50.884;4.346;2022-09-09T12:53:50;3.88;;;1.65;;
30892;SDS011;17595;50.884;4.346;2022-09-09T12:56:20;6.97;;;1.60;;
30892;SDS011;17595;50.884;4.346;2022-09-09T12:58:49;2.90;;;1.10;;
30892;SDS011;17595;50.884;4.346;2022-09-09T13:04:00;2.78;;;1.08;;
30892;SDS011;17595;50.884;4.346;2022-09-09T13:06:30;4.03;;;1.40;;
30892;SDS011;17595;50.884;4.346;2022-09-09T13:08:58;5.57;;;1.55;;
30892;SDS011;17595;50.884;4.346;2022-09-09T13:13:54;4.28;;;1.35;;
30892;SDS011;17595;50.884;4.346;2022-09-09T13:16:23;3.45;;;1.30;;
30892;SDS011;17595;50.884;4.346;2022-09-09T13:18:56;3.97;;;1.23;;
30892;SDS011;17595;50.884;4.346;2022-09-09T13:21:36;3.38;;;1.55;;
30892;SDS011;17595;50.884;4.346;2022-09-09T13:24:19;5.50;;;1.40;;
30892;SDS011;17595;50.884;4.346;2022-09-09T13:26:58;4.70;;;1.53;;
30892;SDS011;17595;50.884;4.346;2022-09-09T13:29:27;3.38;;;1.05;;
30892;SDS011;17595;50.884;4.346;2022-09-09T13:31:53;8.40;;;1.42;;
30892;SDS011;17595;50.884;4.346;2022-09-09T13:34:29;5.38;;;1.60;;
30892;SDS011;17595;50.884;4.346;2022-09-09T13:36:58;5.77;;;1.40;;
30892;SDS011;17595;50.884;4.346;2022-09-09T13:39:30;6.43;;;1.30;;
30892;SDS011;17595;50.884;4.346;2022-09-09T13:41:58;5.18;;;1.20;;
30892;SDS011;17595;50.884;4.346;2022-09-09T13:44:28;6.47;;;1.25;;
30892;SDS011;17595;50.884;4.346;2022-09-09T13:49:28;4.95;;;1.40;;
30892;SDS011;17595;50.884;4.346;2022-09-09T13:52:03;6.10;;;1.20;;
30892;SDS011;17595;50.884;4.346;2022-09-09T13:54:32;3.15;;;1.42;;
30892;SDS011;17595;50.884;4.346;2022-09-09T13:56:58;3.25;;;1.05;;
30892;SDS011;17595;50.884;4.346;2022-09-09T13:59:24;4.90;;;1.15;;
30892;SDS011;17595;50.884;4.346;2022-09-09T14:01:50;6.45;;;1.38;;
30892;SDS011;17595;50.884;4.346;2022-09-09T14:04:17;3.33;;;1.55;;
30892;SDS011;17595;50.884;4.346;2022-09-09T14:06:45;3.60;;;1.13;;
30892;SDS011;17595;50.884;4.346;2022-09-09T14:09:12;4.22;;;1.10;;
30892;SDS011;17595;50.884;4.346;2022-09-09T14:11:39;4.35;;;1.13;;
30892;SDS011;17595;50.884;4.346;2022-09-09T14:14:05;5.88;;;1.52;;
30892;SDS011;17595;50.884;4.346;2022-09-09T14:16:32;5.30;;;1.38;;
30892;SDS011;17595;50.884;4.346;2022-09-09T14:18:58;4.18;;;1.30;;
30892;SDS011;17595;50.884;4.346;2022-09-09T14:21:24;4.10;;;1.17;;
30892;SDS011;17595;50.884;4.346;2022-09-09T14:23:51;8.73;;;1.35;;
30892;SDS011;17595;50.884;4.346;2022-09-09T14:26:17;6.50;;;1.67;;
30892;SDS011;17595;50.884;4.346;2022-09-09T14:28:46;4.27;;;1.43;;
30892;SDS011;17595;50.884;4.346;2022-09-09T14:31:12;5.60;;;1.60;;
30892;SDS011;17595;50.884;4.346;2022-09-09T14:33:38;4.28;;;1.55;;
30892;SDS011;17595;50.884;4.346;2022-09-09T14:36:04;4.32;;;1.35;;
30892;SDS011;17595;50.884;4.346;2022-09-09T14:38:31;6.55;;;1.52;;
30892;SDS011;17595;50.884;4.346;2022-09-09T14:41:04;5.68;;;1.73;;
30892;SDS011;17595;50.884;4.346;2022-09-09T14:43:31;6.72;;;1.50;;
30892;SDS011;17595;50.884;4.346;2022-09-09T14:45:57;4.47;;;1.40;;
30892;SDS011;17595;50.884;4.346;2022-09-09T14:48:33;3.53;;;1.20;;
30892;SDS011;17595;50.884;4.346;2022-09-09T14:51:33;7.03;;;1.75;;
30892;SDS011;17595;50.884;4.346;2022-09-09T14:53:55;7.25;;;1.80;;
30892;SDS011;17595;50.884;4.346;2022-09-09T14:56:23;3.40;;;1.42;;
30892;SDS011;17595;50.884;4.346;2022-09-09T15:03:51;4.90;;;1.30;;
30892;SDS011;17595;50.884;4.346;2022-09-09T15:06:18;4.40;;;1.63;;
30892;SDS011;17595;50.884;4.346;2022-09-09T15:08:45;4.15;;;1.50;;
30892;SDS011;17595;50.884;4.346;2022-09-09T15:11:12;4.57;;;1.30;;
30892;SDS011;17595;50.884;4.346;2022-09-09T15:13:40;2.75;;;1.08;;
30892;SDS011;17595;50.884;4.346;2022-09-09T15:16:07;5.18;;;1.50;;
30892;SDS011;17595;50.884;4.346;2022-09-09T15:18:35;8.25;;;1.50;;
30892;SDS011;17595;50.884;4.346;2022-09-09T15:21:07;5.80;;;1.70;;
30892;SDS011;17595;50.884;4.346;2022-09-09T15:23:44;5.65;;;1.50;;
30892;SDS011;17595;50.884;4.346;2022-09-09T15:26:10;4.28;;;1.30;;
30892;SDS011;17595;50.884;4.346;2022-09-09T15:28:37;5.78;;;1.50;;
30892;SDS011;17595;50.884;4.346;2022-09-09T15:31:07;7.68;;;1.95;;
30892;SDS011;17595;50.884;4.346;2022-09-09T15:33:35;4.57;;;1.63;;
30892;SDS011;17595;50.884;4.346;2022-09-09T15:36:24;3.70;;;1.38;;
30892;SDS011;17595;50.884;4.346;2022-09-09T15:38:49;3.92;;;1.27;;
30892;SDS011;17595;50.884;4.346;2022-09-09T15:41:16;6.15;;;1.65;;
30892;SDS011;17595;50.884;4.346;2022-09-09T15:43:44;3.50;;;1.35;;
30892;SDS011;17595;50.884;4.346;2022-09-09T15:48:43;3.88;;;1.40;;
30892;SDS011;17595;50.884;4.346;2022-09-09T15:51:09;4.00;;;1.40;;
30892;SDS011;17595;50.884;4.346;2022-09-09T15:53:36;6.28;;;1.38;;
30892;SDS011;17595;50.884;4.346;2022-09-09T15:58:34;5.53;;;1.70;;
30892;SDS011;17595;50.884;4.346;2022-09-09T16:01:07;4.40;;;1.75;;
30892;SDS011;17595;50.884;4.346;2022-09-09T16:03:36;4.60;;;1.60;;
30892;SDS011;17595;50.884;4.346;2022-09-09T16:06:04;4.07;;;1.42;;
30892;SDS011;17595;50.884;4.346;2022-09-09T16:08:33;6.90;;;1.40;;
30892;SDS011;17595;50.884;4.346;2022-09-09T16:11:06;3.75;;;1.60;;
30892;SDS011;17595;50.884;4.346;2022-09-09T16:13:38;5.70;;;1.40;;
30892;SDS011;17595;50.884;4.346;2022-09-09T16:16:04;4.75;;;1.80;;
30892;SDS011;17595;50.884;4.346;2022-09-09T16:18:38;4.40;;;1.40;;
30892;SDS011;17595;50.884;4.346;2022-09-09T16:21:06;2.60;;;1.45;;
30892;SDS011;17595;50.884;4.346;2022-09-09T16:23:33;3.83;;;1.40;;
30892;SDS011;17595;50.884;4.346;2022-09-09T16:26:00;5.05;;;1.20;;
30892;SDS011;17595;50.884;4.346;2022-09-09T16:28:26;3.72;;;1.17;;
30892;SDS011;17595;50.884;4.346;2022-09-09T16:30:52;6.53;;;1.33;;
30892;SDS011;17595;50.884;4.346;2022-09-09T16:33:18;2.38;;;1.02;;
30892;SDS011;17595;50.884;4.346;2022-09-09T16:35:44;3.40;;;1.10;;
30892;SDS011;17595;50.884;4.346;2022-09-09T16:38:10;3.80;;;1.70;;
30892;SDS011;17595;50.884;4.346;2022-09-09T16:40:36;5.07;;;1.40;;
30892;SDS011;17595;50.884;4.346;2022-09-09T16:43:03;4.22;;;1.63;;
30892;SDS011;17595;50.884;4.346;2022-09-09T16:45:30;3.83;;;1.38;;
30892;SDS011;17595;50.884;4.346;2022-09-09T16:47:57;5.03;;;1.55;;
30892;SDS011;17595;50.884;4.346;2022-09-09T16:50:25;5.38;;;1.20;;
30892;SDS011;17595;50.884;4.346;2022-09-09T16:52:52;4.47;;;1.13;;
30892;SDS011;17595;50.884;4.346;2022-09-09T16:55:17;2.80;;;1.17;;
30892;SDS011;17595;50.884;4.346;2022-09-09T16:57:45;4.03;;;1.13;;
30892;SDS011;17595;50.884;4.346;2022-09-09T17:00:13;4.27;;;1.57;;
30892;SDS011;17595;50.884;4.346;2022-09-09T17:02:41;3.42;;;1.00;;
30892;SDS011;17595;50.884;4.346;2022-09-09T17:05:07;4.60;;;1.20;;
30892;SDS011;17595;50.884;4.346;2022-09-09T17:07:34;4.85;;;1.33;;
30892;SDS011;17595;50.884;4.346;2022-09-09T17:10:00;4.32;;;1.50;;
30892;SDS011;17595;50.884;4.346;2022-09-09T17:12:26;5.10;;;2.00;;
30892;SDS011;17595;50.884;4.346;2022-09-09T17:14:52;6.60;;;2.80;;
30892;SDS011;17595;50.884;4.346;2022-09-09T17:17:17;8.43;;;1.70;;
30892;SDS011;17595;50.884;4.346;2022-09-09T17:19:43;4.65;;;2.35;;
30892;SDS011;17595;50.884;4.346;2022-09-09T17:22:09;7.15;;;2.40;;
30892;SDS011;17595;50.884;4.346;2022-09-09T17:24:34;6.25;;;3.10;;
30892;SDS011;17595;50.884;4.346;2022-09-09T17:27:03;4.85;;;2.75;;
30892;SDS011;17595;50.884;4.346;2022-09-09T17:29:28;5.30;;;2.35;;
30892;SDS011;17595;50.884;4.346;2022-09-09T17:31:54;7.78;;;1.83;;
30892;SDS011;17595;50.884;4.346;2022-09-09T17:34:20;5.93;;;1.77;;
30892;SDS011;17595;50.884;4.346;2022-09-09T17:36:45;7.32;;;1.98;;
30892;SDS011;17595;50.884;4.346;2022-09-09T17:39:11;6.53;;;1.70;;
30892;SDS011;17595;50.884;4.346;2022-09-09T17:41:38;5.18;;;1.25;;
30892;SDS011;17595;50.884;4.346;2022-09-09T17:44:05;5.03;;;1.42;;
30892;SDS011;17595;50.884;4.346;2022-09-09T17:46:33;4.78;;;1.80;;
30892;SDS011;17595;50.884;4.346;2022-09-09T17:49:03;7.18;;;1.60;;
30892;SDS011;17595;50.884;4.346;2022-09-09T17:51:31;5.10;;;1.50;;
30892;SDS011;17595;50.884;4.346;2022-09-09T17:53:59;4.72;;;1.60;;
30892;SDS011;17595;50.884;4.346;2022-09-09T17:56:27;7.75;;;1.92;;
30892;SDS011;17595;50.884;4.346;2022-09-09T17:58:55;5.07;;;1.60;;
30892;SDS011;17595;50.884;4.346;2022-09-09T18:01:26;5.63;;;1.45;;
30892;SDS011;17595;50.884;4.346;2022-09-09T18:03:56;8.45;;;1.75;;